Time;durP1;ratioP1;P1;durP2;ratioP2;P2;SDS_P1;SDS_P2;PMS_P1;PMS_P2;Temp;Humidity;BMP_temperature;BMP_pressure;BME280_temperature;BME280_humidity;BME280_pressure;Samples;Min_cycle;Max_cycle;Signal;HPM_P1;HPM_P2
2021/03/23 00:02:10;;;;;;;51.37;22.17;;;;;;;1.12;61.42;100709.16;2214633;80;29102;-65
2021/03/23 00:05:13;;;;;;;56.15;20.75;;;;;;;1.08;61.35;100706.09;2215231;80;27671;-63
2021/03/23 00:08:38;;;;;;;51.68;21.62;;;;;;;1.03;61.24;100704.80;2208717;80;29750;-65
2021/03/23 00:11:42;;;;;;;61.80;21.93;;;;;;;1.01;61.19;100701.73;2205079;80;31212;-64
2021/03/23 00:14:45;;;;;;;50.88;22.37;;;;;;;0.98;61.33;100701.74;2205932;80;33978;-63
2021/03/23 00:17:48;;;;;;;58.78;22.13;;;;;;;0.96;61.37;100704.82;2209097;80;29151;-64
2021/03/23 00:20:51;;;;;;;59.18;24.43;;;;;;;0.90;61.45;100703.98;2215100;80;27599;-65
2021/03/23 00:23:54;;;;;;;65.25;25.27;;;;;;;0.85;61.36;100704.42;2215317;80;28818;-64
2021/03/23 00:26:56;;;;;;;67.42;25.40;;;;;;;0.77;61.35;100706.65;2213094;80;32082;-64
2021/03/23 00:29:59;;;;;;;61.85;25.82;;;;;;;0.72;61.39;100704.03;2205574;80;33101;-64
2021/03/23 00:33:02;;;;;;;68.80;26.27;;;;;;;0.68;61.48;100704.45;2187458;80;31509;-64
2021/03/23 00:36:06;;;;;;;67.87;25.88;;;;;;;0.65;61.45;100708.87;2205635;80;27681;-64
2021/03/23 00:39:11;;;;;;;65.03;25.43;;;;;;;0.61;61.58;100701.41;2206747;80;28814;-64
2021/03/23 00:42:13;;;;;;;60.43;23.67;;;;;;;0.56;61.56;100707.13;2205724;80;32409;-64
2021/03/23 00:45:17;;;;;;;62.17;23.98;;;;;;;0.54;61.67;100702.30;2205553;80;33137;-62
2021/03/23 00:48:19;;;;;;;61.13;24.45;;;;;;;0.52;61.70;100699.67;2205775;80;29174;-63
2021/03/23 00:51:22;;;;;;;56.95;24.15;;;;;;;0.48;61.83;100705.83;2205312;80;27774;-64
2021/03/23 00:54:24;;;;;;;60.90;24.50;;;;;;;0.45;61.98;100710.67;2205034;80;28845;-64
2021/03/23 00:57:26;;;;;;;58.50;24.12;;;;;;;0.43;62.18;100707.58;2211766;80;31105;-64
2021/03/23 01:00:28;;;;;;;59.10;22.42;;;;;;;0.41;62.24;100706.73;2221669;80;33992;-63
2021/03/23 01:03:30;;;;;;;52.67;23.10;;;;;;;0.38;62.48;100705.41;2211577;80;29662;-65
2021/03/23 01:06:33;;;;;;;67.75;29.72;;;;;;;0.37;62.64;100702.34;2205351;80;28298;-64
2021/03/23 01:09:35;;;;;;;58.55;26.33;;;;;;;0.35;62.72;100706.27;2191386;80;28833;-64
2021/03/23 01:12:38;;;;;;;73.92;31.97;;;;;;;0.34;62.89;100707.60;2188502;81;32200;-64
2021/03/23 01:16:01;;;;;;;68.85;29.05;;;;;;;0.34;62.96;100707.60;2189545;81;33121;-64
2021/03/23 01:19:04;;;;;;;69.90;30.68;;;;;;;0.34;62.99;100708.47;1993259;89;28966;-64
2021/03/23 01:22:06;;;;;;;61.77;26.45;;;;;;;0.33;63.06;100701.89;1977745;89;27747;-64
2021/03/23 01:25:10;;;;;;;62.73;26.82;;;;;;;0.31;63.00;100697.95;1999098;89;28847;-64
2021/03/23 01:28:12;;;;;;;59.57;25.90;;;;;;;0.27;63.06;100698.83;1999427;88;32292;-64
2021/03/23 01:31:15;;;;;;;57.62;23.65;;;;;;;0.25;63.11;100701.90;1957632;89;33119;-64
2021/03/23 01:34:17;;;;;;;63.20;24.87;;;;;;;0.22;63.18;100698.84;1992676;89;29170;-64
2021/03/23 01:37:19;;;;;;;48.28;20.52;;;;;;;0.20;63.15;100701.02;1995005;88;27711;-64
2021/03/23 01:40:25;;;;;;;52.23;22.40;;;;;;;0.16;63.20;100694.02;1994552;89;28820;-64
2021/03/23 01:43:33;;;;;;;53.20;21.95;;;;;;;0.12;63.20;100697.06;2023145;87;31177;-64
2021/03/23 01:46:44;;;;;;;52.88;22.77;;;;;;;0.09;63.34;100702.33;2035957;87;33203;-65
2021/03/23 01:49:47;;;;;;;46.73;22.00;;;;;;;0.06;63.41;100697.09;2038552;86;30120;-65
2021/03/23 01:53:10;;;;;;;51.35;21.37;;;;;;;0.04;63.45;100698.84;2038593;86;27578;-62
2021/03/23 01:56:14;;;;;;;48.80;23.25;;;;;;;0.03;63.58;100697.08;2034319;86;28904;-62
2021/03/23 01:59:16;;;;;;;55.12;21.62;;;;;;;-0.01;63.70;100692.26;2037796;87;32102;-63
2021/03/23 02:02:25;;;;;;;56.48;23.30;;;;;;;-0.03;63.87;100693.56;2037282;86;34070;-63
2021/03/23 02:05:30;;;;;;;47.25;22.48;;;;;;;-0.05;63.90;100692.67;2035675;87;29374;-63
2021/03/23 02:08:32;;;;;;;50.83;20.17;;;;;;;-0.04;63.94;100696.20;2035550;87;27620;-61
2021/03/23 02:11:39;;;;;;;52.75;20.95;;;;;;;-0.08;63.88;100685.22;2035758;87;28830;-64
2021/03/23 02:14:45;;;;;;;46.28;19.32;;;;;;;-0.10;63.93;100683.02;2035722;87;31346;-63
2021/03/23 02:18:09;;;;;;;51.18;19.95;;;;;;;-0.12;64.10;100687.41;2058050;85;33148;-63
2021/03/23 02:21:16;;;;;;;45.98;19.32;;;;;;;-0.13;64.16;100684.33;2066405;85;29223;-64
2021/03/23 02:24:18;;;;;;;47.60;18.92;;;;;;;-0.16;64.32;100690.03;2071877;84;27700;-63
2021/03/23 02:27:21;;;;;;;48.30;20.17;;;;;;;-0.18;64.36;100685.23;2082977;85;28763;-63
2021/03/23 02:30:40;;;;;;;50.55;20.45;;;;;;;-0.20;64.49;100686.98;2083367;85;31157;-63
2021/03/23 02:33:42;;;;;;;53.60;20.55;;;;;;;-0.21;64.48;100689.17;2072495;85;33125;-61
2021/03/23 02:36:46;;;;;;;54.33;22.52;;;;;;;-0.22;64.52;100680.83;2075624;85;29197;-63
2021/03/23 02:39:48;;;;;;;52.62;21.23;;;;;;;-0.20;64.61;100684.77;2062075;86;27795;-64
2021/03/23 02:42:51;;;;;;;49.35;20.77;;;;;;;-0.21;64.71;100689.59;2062759;85;29344;-64
2021/03/23 02:45:55;;;;;;;47.65;20.00;;;;;;;-0.21;64.79;100690.91;2065744;86;31159;-64
2021/03/23 02:48:58;;;;;;;54.88;22.40;;;;;;;-0.22;64.89;100685.20;2065809;84;33610;-63
2021/03/23 02:52:00;;;;;;;59.00;22.82;;;;;;;-0.23;64.92;100684.76;2065852;86;29173;-63
2021/03/23 02:55:04;;;;;;;62.50;24.00;;;;;;;-0.24;64.99;100688.27;2082932;85;27784;-64
2021/03/23 02:58:06;;;;;;;54.80;22.65;;;;;;;-0.25;65.01;100686.09;2083472;85;29812;-63
2021/03/23 03:01:10;;;;;;;56.37;23.77;;;;;;;-0.26;65.08;100682.15;2082497;84;31141;-63
2021/03/23 03:04:12;;;;;;;57.25;21.93;;;;;;;-0.25;65.15;100682.59;2072496;85;33114;-64
2021/03/23 03:07:15;;;;;;;53.98;21.93;;;;;;;-0.26;65.28;100679.06;2065625;84;29173;-63
2021/03/23 03:10:17;;;;;;;47.35;20.55;;;;;;;-0.23;65.43;100680.81;2066505;85;27689;-63
2021/03/23 03:13:22;;;;;;;56.53;22.90;;;;;;;-0.21;65.49;100686.54;2082285;84;31065;-63
2021/03/23 03:16:24;;;;;;;56.88;21.52;;;;;;;-0.18;65.63;100679.06;2069190;85;31238;-65
2021/03/23 03:19:26;;;;;;;46.63;20.77;;;;;;;-0.16;65.68;100679.95;2061699;86;33130;-64
2021/03/23 03:22:28;;;;;;;49.35;20.05;;;;;;;-0.11;65.77;100676.89;2064436;85;30140;-63
2021/03/23 03:25:30;;;;;;;50.45;20.68;;;;;;;-0.08;65.91;100679.50;2065883;86;27695;-64
2021/03/23 03:28:34;;;;;;;48.80;19.30;;;;;;;-0.03;65.91;100680.39;2066023;85;28806;-63
2021/03/23 03:31:36;;;;;;;39.83;19.52;;;;;;;0.03;66.00;100678.64;2073898;85;31169;-64
2021/03/23 03:34:38;;;;;;;45.25;19.35;;;;;;;0.08;66.10;100677.76;2083345;84;34138;-64
2021/03/23 03:37:41;;;;;;;51.15;18.87;;;;;;;0.13;66.18;100675.11;2083327;85;29330;-64
2021/03/23 03:40:48;;;;;;;45.15;17.05;;;;;;;0.18;66.13;100674.69;2080793;85;27764;-64
2021/03/23 03:44:10;;;;;;;40.85;17.00;;;;;;;0.22;66.32;100665.01;2075617;85;28837;-61
2021/03/23 03:47:12;;;;;;;42.50;18.20;;;;;;;0.30;66.35;100672.48;2185463;81;31591;-63
2021/03/23 03:50:16;;;;;;;55.15;19.32;;;;;;;0.37;66.47;100666.30;2186217;81;34056;-65
2021/03/23 03:53:19;;;;;;;38.38;16.95;;;;;;;0.48;66.54;100673.33;2146371;81;29473;-63
2021/03/23 03:56:21;;;;;;;34.95;16.57;;;;;;;0.54;66.57;100677.25;2173480;81;28096;-63
2021/03/23 03:59:24;;;;;;;34.00;13.98;;;;;;;0.62;66.59;100685.14;2186644;81;28666;-71
2021/03/23 04:02:26;;;;;;;36.00;14.93;;;;;;;0.67;66.68;100692.16;2186149;81;32048;-68
2021/03/23 04:05:33;;;;;;;35.15;14.00;;;;;;;0.78;66.81;100693.91;2186159;81;33204;-64
2021/03/23 04:08:38;;;;;;;40.28;14.78;;;;;;;0.87;66.77;100697.81;2184577;81;29219;-66
2021/03/23 04:11:42;;;;;;;33.67;13.28;;;;;;;0.96;66.79;100684.61;2168015;81;27678;-64
2021/03/23 04:14:45;;;;;;;33.88;13.28;;;;;;;1.03;66.70;100690.28;2146601;82;28743;-64
2021/03/23 04:17:47;;;;;;;41.65;13.48;;;;;;;1.14;66.65;100701.25;2148167;81;32025;-64
2021/03/23 04:20:52;;;;;;;33.05;14.25;;;;;;;1.20;66.64;100706.48;2148814;82;33538;-63
2021/03/23 04:23:54;;;;;;;28.98;9.75;;;;;;;1.28;66.61;100707.77;2149074;82;29250;-62
2021/03/23 04:26:58;;;;;;;29.15;13.58;;;;;;;1.32;66.60;100701.17;2148449;82;27707;-65
2021/03/23 04:30:00;;;;;;;37.15;14.38;;;;;;;1.40;66.63;100705.09;2184989;81;28830;-64
2021/03/23 04:33:02;;;;;;;36.38;15.15;;;;;;;1.47;66.62;100717.35;2186243;81;32104;-64
2021/03/23 04:36:07;;;;;;;32.65;13.45;;;;;;;1.53;66.52;100716.89;2186374;81;33208;-64
2021/03/23 04:39:12;;;;;;;31.02;13.78;;;;;;;1.56;66.54;100720.84;2186319;81;29174;-63
2021/03/23 04:42:14;;;;;;;35.38;13.35;;;;;;;1.60;66.51;100713.31;2186600;81;27588;-64
2021/03/23 04:45:18;;;;;;;44.03;13.83;;;;;;;1.65;66.55;100722.09;2186236;81;28834;-63
2021/03/23 04:48:22;;;;;;;38.67;14.20;;;;;;;1.69;66.48;100721.63;2186727;81;31147;-63
2021/03/23 04:51:29;;;;;;;31.60;12.88;;;;;;;1.72;66.36;100722.93;2186056;81;33187;-64
2021/03/23 04:54:31;;;;;;;29.20;13.80;;;;;;;1.74;66.44;100723.34;2186479;81;30116;-64
2021/03/23 04:57:33;;;;;;;33.75;13.30;;;;;;;1.81;66.49;100721.57;2186496;81;28142;-61
2021/03/23 05:00:35;;;;;;;29.48;13.45;;;;;;;1.84;66.40;100717.56;2164062;81;29984;-64
2021/03/23 05:03:37;;;;;;;27.40;12.90;;;;;;;1.89;66.45;100718.41;2169808;81;31141;-64
2021/03/23 05:06:40;;;;;;;24.25;12.10;;;;;;;1.95;66.46;100717.06;2185251;81;35445;-63
2021/03/23 05:09:42;;;;;;;35.38;14.30;;;;;;;1.99;66.41;100728.94;2178431;81;30309;-65
2021/03/23 05:12:44;;;;;;;34.35;13.05;;;;;;;2.04;66.47;100727.12;2177633;81;27752;-64
2021/03/23 05:15:46;;;;;;;26.97;11.60;;;;;;;2.09;66.44;100731.93;2180501;81;28882;-64
2021/03/23 05:18:49;;;;;;;27.73;11.65;;;;;;;2.14;66.31;100743.36;2186417;81;31149;-64
2021/03/23 05:21:51;;;;;;;23.22;10.82;;;;;;;2.19;66.31;100744.17;2185609;81;33140;-65
2021/03/23 05:24:53;;;;;;;26.25;11.00;;;;;;;2.25;66.24;100745.46;2186300;81;30127;-65
2021/03/23 05:27:55;;;;;;;33.13;12.07;;;;;;;2.31;66.32;100753.78;2186586;81;27542;-64
2021/03/23 05:30:58;;;;;;;25.27;10.65;;;;;;;2.36;66.19;100745.37;2186476;81;29254;-64
2021/03/23 05:34:00;;;;;;;27.52;10.95;;;;;;;2.39;66.12;100749.31;2186325;81;31105;-64
2021/03/23 05:37:03;;;;;;;29.10;11.85;;;;;;;2.42;66.09;100749.27;2185680;81;34083;-63
2021/03/23 05:40:08;;;;;;;34.55;17.65;;;;;;;2.48;66.20;100748.36;2186476;81;29163;-64
2021/03/23 05:43:33;;;;;;;39.55;19.35;;;;;;;2.55;66.23;100750.50;2185960;81;27728;-63
2021/03/23 05:46:38;;;;;;;48.70;23.62;;;;;;;2.60;66.13;100749.13;2178951;81;28831;-64
2021/03/23 05:49:43;;;;;;;;;;;;;;;2.67;66.04;100749.48;2176977;81;32075;-64
2021/03/23 05:52:55;;;;;;;40.73;17.50;;;;;;;2.70;65.97;100743.74;2169955;82;33204;-64
2021/03/23 05:55:59;;;;;;;36.20;14.60;;;;;;;2.70;65.96;100749.45;2170264;82;29244;-64
2021/03/23 05:59:15;;;;;;;33.30;11.73;;;;;;;2.72;66.01;100746.36;2170483;82;27696;-65
2021/03/23 06:02:23;;;;;;;24.70;10.90;;;;;;;2.75;66.17;100751.63;2170069;82;29732;-63
2021/03/23 06:05:46;;;;;;;23.70;9.20;;;;;;;2.85;66.34;100752.41;2297216;77;27640;-61
2021/03/23 06:08:50;;;;;;;26.33;10.98;;;;;;;2.86;66.38;100750.20;2262326;78;27672;-63
2021/03/23 06:11:56;;;;;;;28.65;13.43;;;;;;;2.96;66.41;100759.77;2262581;78;28814;-63
2021/03/23 06:15:07;;;;;;;34.48;14.33;;;;;;;3.07;66.56;100766.28;2262503;78;33458;-63
2021/03/23 06:18:26;;;;;;;28.23;13.15;;;;;;;3.15;66.63;100763.55;2146101;82;33117;-63
2021/03/23 06:22:02;;;;;;;26.63;11.10;;;;;;;3.28;66.73;100762.50;2297488;77;27736;-60
2021/03/23 06:25:27;;;;;;;29.32;11.40;;;;;;;3.30;66.72;100755.42;2262669;78;27673;-64
2021/03/23 06:28:56;;;;;;;20.80;9.95;;;;;;;3.38;66.84;100758.44;2233389;78;29302;-63
2021/03/23 06:32:19;;;;;;;28.90;10.08;;;;;;;3.49;66.82;100763.14;2217640;78;31178;-62
2021/03/23 06:35:42;;;;;;;26.10;10.78;;;;;;;3.61;66.60;100768.27;2178844;81;33542;-64
2021/03/23 06:38:44;;;;;;;20.92;9.10;;;;;;;3.72;66.59;100772.56;2178791;81;30901;-61
2021/03/23 06:41:58;;;;;;;21.42;8.93;;;;;;;3.84;66.62;100768.84;2139639;83;27752;-63
2021/03/23 06:45:34;;;;;;;26.40;10.45;;;;;;;3.92;66.35;100774.46;2178940;81;29236;-62
2021/03/23 06:48:37;;;;;;;27.50;10.15;;;;;;;3.97;66.18;100769.55;2139653;81;31192;-62
2021/03/23 06:51:53;;;;;;;24.57;9.70;;;;;;;4.03;66.30;100782.27;2178783;81;35417;-64
2021/03/23 06:55:23;;;;;;;24.02;9.78;;;;;;;4.09;66.21;100789.24;2176214;80;28849;-63
2021/03/23 06:58:34;;;;;;;22.42;9.70;;;;;;;4.14;66.12;100788.73;2165557;82;27664;-63
2021/03/23 07:01:41;;;;;;;28.12;9.35;;;;;;;4.18;66.03;100789.55;2164717;82;28829;-64
2021/03/23 07:04:43;;;;;;;24.75;9.55;;;;;;;4.20;66.03;100788.66;2205349;80;32337;-63
2021/03/23 07:08:12;;;;;;;24.23;11.25;;;;;;;4.23;66.23;100790.38;2217381;80;33970;-62
2021/03/23 07:11:14;;;;;;;24.43;10.10;;;;;;;4.29;66.18;100782.77;2195914;80;28200;-63
2021/03/23 07:14:36;;;;;;;21.40;9.75;;;;;;;4.35;66.27;100779.56;2178871;81;27640;-64
2021/03/23 07:17:45;;;;;;;18.55;8.50;;;;;;;4.55;66.30;100782.34;2139734;83;28897;-64
2021/03/23 07:20:49;;;;;;;16.73;7.53;;;;;;;4.86;66.46;100774.73;2182914;81;32101;-63
2021/03/23 07:24:11;;;;;;;18.05;8.38;;;;;;;5.07;66.17;100784.97;2163095;81;34031;-64
2021/03/23 07:27:18;;;;;;;21.50;8.63;;;;;;;5.13;65.93;100776.42;2196097;80;29910;-64
2021/03/23 07:30:27;;;;;;;21.48;8.30;;;;;;;5.15;65.91;100785.24;2183847;81;27691;-65
2021/03/23 07:34:04;;;;;;;18.62;7.95;;;;;;;5.19;66.03;100782.53;2210693;80;29712;-64
2021/03/23 07:37:22;;;;;;;20.15;9.03;;;;;;;5.23;66.09;100780.22;2145339;83;32061;-63
2021/03/23 07:40:33;;;;;;;24.85;9.13;;;;;;;5.31;66.20;100790.25;2185058;81;33602;-64
2021/03/23 07:43:59;;;;;;;19.05;8.48;;;;;;;5.35;66.17;100797.27;2144980;81;28865;-65
2021/03/23 07:47:19;;;;;;;21.52;9.08;;;;;;;5.38;66.17;100799.83;2206693;80;27503;-65
2021/03/23 07:50:33;;;;;;;17.05;8.48;;;;;;;5.45;66.22;100800.61;2207827;80;28820;-65
2021/03/23 07:53:41;;;;;;;19.87;9.13;;;;;;;5.47;66.12;100797.01;2185116;81;31234;-65
2021/03/23 07:57:10;;;;;;;20.23;9.30;;;;;;;5.52;66.21;100798.70;2176355;80;33112;-62
2021/03/23 08:00:20;;;;;;;20.70;9.05;;;;;;;5.54;66.17;100799.08;2175771;81;28756;-62
2021/03/23 08:03:40;;;;;;;19.98;9.70;;;;;;;5.60;66.22;100796.30;2185133;81;27675;-64
2021/03/23 08:07:18;;;;;;;22.45;11.40;;;;;;;5.73;66.31;100794.23;2185039;80;28835;-65
2021/03/23 08:10:56;;;;;;;24.72;9.10;;;;;;;5.88;66.21;100795.70;2185069;81;31131;-63
2021/03/23 08:14:21;;;;;;;18.50;8.73;;;;;;;6.10;66.41;100792.59;2145443;83;34490;-64
2021/03/23 08:17:32;;;;;;;22.30;9.98;;;;;;;6.32;66.22;100800.05;2185326;81;28895;-64
2021/03/23 08:20:59;;;;;;;28.73;12.18;;;;;;;6.49;66.18;100811.64;2142867;83;27666;-63
2021/03/23 08:24:44;;;;;;;24.20;10.98;;;;;;;6.59;66.04;100806.49;2178299;80;29780;-64
2021/03/23 08:28:25;;;;;;;28.87;12.30;;;;;;;6.67;66.05;100807.19;2138670;83;31167;-63
2021/03/23 08:32:13;;;;;;;27.60;11.90;;;;;;;6.75;65.89;100807.44;2177979;81;33551;-64
2021/03/23 08:35:52;;;;;;;21.52;11.22;;;;;;;6.82;65.94;100813.03;2138742;83;30288;-63
2021/03/23 08:39:40;;;;;;;26.15;12.90;;;;;;;6.86;65.91;100810.72;2175689;80;27590;-63
2021/03/23 08:42:47;;;;;;;16.90;10.18;;;;;;;6.94;66.01;100819.36;2164561;82;28824;-64
2021/03/23 08:45:51;;;;;;;19.77;11.00;;;;;;;7.08;66.11;100819.45;2164916;82;30352;-63
2021/03/23 08:49:04;;;;;;;21.87;10.68;;;;;;;7.17;66.02;100817.00;2164814;82;33082;-64
2021/03/23 08:52:33;;;;;;;20.48;10.85;;;;;;;7.24;66.24;100815.92;2164431;82;28947;-64
2021/03/23 08:55:42;;;;;;;66.40;23.45;;;;;;;7.32;66.29;100825.90;2103688;84;27659;-62
2021/03/23 08:58:49;;;;;;;31.62;17.27;;;;;;;7.35;66.16;100818.30;2147062;82;29599;-64
2021/03/23 09:01:52;;;;;;;52.73;30.37;;;;;;;7.37;66.10;100821.77;2147131;82;32234;-71
2021/03/23 09:04:58;;;;;;;52.35;32.85;;;;;;;7.37;66.08;100821.33;2172129;79;33956;-73
2021/03/23 09:08:30;;;;;;;31.50;19.97;;;;;;;7.43;65.93;100825.17;2250605;78;30977;-69
2021/03/23 09:12:12;;;;;;;51.33;34.03;;;;;;;7.39;66.13;100818.16;2235960;79;27684;-72
2021/03/23 09:15:22;;;;;;;47.83;29.02;;;;;;;7.47;66.29;100825.05;2231364;79;29739;-69
2021/03/23 09:18:28;;;;;;;27.15;16.42;;;;;;;7.56;66.25;100833.66;2219506;80;32173;-72
2021/03/23 09:21:56;;;;;;;36.65;22.00;;;;;;;7.57;66.17;100839.89;2219578;80;34231;-74
2021/03/23 09:25:24;;;;;;;32.17;15.30;;;;;;;7.58;66.11;100840.31;2179589;81;28539;-74
2021/03/23 09:28:40;;;;;;;27.87;15.58;;;;;;;7.56;66.02;100844.33;2114499;83;27602;-74
2021/03/23 09:31:53;;;;;;;66.28;19.55;;;;;;;7.52;66.01;100843.14;2122551;83;28824;-74
2021/03/23 09:35:14;;;;;;;44.40;15.63;;;;;;;7.47;66.17;100841.05;2114216;84;32317;-71
2021/03/23 09:38:33;;;;;;;27.45;15.95;;;;;;;7.41;66.21;100846.09;2114323;84;33350;-74
2021/03/23 09:41:37;;;;;;;28.62;16.10;;;;;;;7.32;66.23;100836.56;2077961;85;28872;-75
2021/03/23 09:45:02;;;;;;;24.10;15.90;;;;;;;7.28;66.31;100832.26;2252190;77;29513;-74
2021/03/23 09:48:19;;;;;;;24.25;15.10;;;;;;;7.17;66.46;100838.31;2182105;80;27709;-76
2021/03/23 09:51:44;;;;;;;19.02;13.43;;;;;;;7.11;66.64;100840.25;2178780;81;28997;-73
2021/03/23 09:54:58;;;;;;;20.27;12.07;;;;;;;7.04;66.76;100837.75;2178774;81;31147;-75
2021/03/23 09:58:02;;;;;;;17.82;11.35;;;;;;;7.01;66.90;100836.53;2178473;81;33112;-74
2021/03/23 10:01:23;;;;;;;51.23;15.68;;;;;;;7.01;67.00;100836.53;2172961;80;28618;-74
2021/03/23 10:04:35;;;;;;;20.37;13.08;;;;;;;7.04;67.15;100838.65;2178159;81;28227;-74
2021/03/23 10:07:39;;;;;;;25.05;15.15;;;;;;;7.07;67.32;100837.68;2177756;81;29787;-74
2021/03/23 10:10:41;;;;;;;25.40;14.80;;;;;;;7.09;67.38;100834.52;2170897;80;32125;-74
2021/03/23 10:13:56;;;;;;;22.35;15.30;;;;;;;7.15;67.44;100839.70;2186720;80;33122;-74
2021/03/23 10:17:19;;;;;;;23.80;14.53;;;;;;;7.18;67.44;100828.97;2217482;80;30189;-75
2021/03/23 10:20:22;;;;;;;25.02;16.00;;;;;;;7.29;67.62;100839.30;2217155;80;27812;-75
2021/03/23 10:23:25;;;;;;;22.85;14.55;;;;;;;7.28;67.39;100832.26;2217354;80;28816;-74
2021/03/23 10:26:41;;;;;;;22.40;15.00;;;;;;;7.27;67.44;100828.70;2217383;80;31216;-73
2021/03/23 10:30:07;;;;;;;26.90;13.95;;;;;;;7.27;67.58;100834.03;2217389;80;33107;-75
2021/03/23 10:33:27;;;;;;;24.30;15.28;;;;;;;7.26;67.61;100834.94;2217007;80;28922;-75
2021/03/23 10:36:47;;;;;;;21.60;13.00;;;;;;;7.21;67.62;100829.33;2217316;80;27772;-73
2021/03/23 10:39:51;;;;;;;26.42;13.98;;;;;;;7.23;67.69;100831.50;2182551;80;29223;-73
2021/03/23 10:42:54;;;;;;;21.62;13.32;;;;;;;7.28;67.95;100828.26;2171372;81;32114;-73
2021/03/23 10:45:58;;;;;;;23.10;12.45;;;;;;;7.50;68.26;100831.64;2171416;81;33124;-73
2021/03/23 10:49:27;;;;;;;15.78;8.05;;;;;;;7.87;68.28;100835.91;2171870;81;29053;-74
2021/03/23 10:52:31;;;;;;;21.20;11.78;;;;;;;8.23;67.96;100832.16;2171812;81;28209;-75
2021/03/23 10:55:35;;;;;;;19.90;10.70;;;;;;;8.48;67.45;100836.28;2171117;81;28778;-74
2021/03/23 10:58:39;;;;;;;12.40;10.35;;;;;;;8.66;67.23;100830.34;2170989;82;31244;-74
2021/03/23 11:02:16;;;;;;;19.10;11.70;;;;;;;8.83;66.71;100830.72;2170801;82;33145;-73
2021/03/23 11:05:49;;;;;;;12.58;9.53;;;;;;;8.87;66.49;100831.89;2170622;82;27688;-74
2021/03/23 11:08:51;;;;;;;17.70;10.80;;;;;;;8.83;66.14;100825.38;2171309;81;27669;-74
2021/03/23 11:11:53;;;;;;;19.45;11.48;;;;;;;8.80;65.97;100833.02;2180575;81;29719;-74
2021/03/23 11:14:56;;;;;;;19.67;12.00;;;;;;;8.75;65.94;100833.66;2194033;80;31139;-74
2021/03/23 11:18:04;;;;;;;24.75;13.95;;;;;;;8.72;65.93;100831.94;2216644;80;34015;-73
2021/03/23 11:21:10;;;;;;;16.17;11.03;;;;;;;8.64;65.88;100836.67;2216708;80;28861;-73
2021/03/23 11:27:27;;;;;;;17.87;11.67;;;;;;;8.45;66.00;100841.24;2305827;77;31874;-73
2021/03/23 11:30:29;;;;;;;18.40;11.53;;;;;;;8.30;66.27;100847.93;2241537;77;27689;-74
2021/03/23 11:33:39;;;;;;;17.42;10.53;;;;;;;8.22;66.44;100849.98;2264203;78;28793;-72
2021/03/23 11:36:42;;;;;;;16.23;11.57;;;;;;;8.20;66.61;100857.16;2240175;78;33400;-75
2021/03/23 11:39:44;;;;;;;18.90;11.65;;;;;;;8.25;66.84;100853.00;2257838;78;34144;-73
2021/03/23 11:42:49;;;;;;;20.37;11.50;;;;;;;8.31;66.97;100847.48;2273568;78;29407;-71
2021/03/23 11:45:53;;;;;;;25.45;15.15;;;;;;;8.41;67.13;100846.73;2272706;77;27699;-74
2021/03/23 11:49:08;;;;;;;16.05;9.45;;;;;;;8.49;66.96;100844.71;2304603;77;29232;-73
2021/03/23 11:52:11;;;;;;;16.70;10.65;;;;;;;8.51;66.85;100848.20;2286555;77;31145;-74
2021/03/23 11:55:21;;;;;;;20.30;10.75;;;;;;;8.52;66.51;100848.62;2272276;78;33211;-73
2021/03/23 11:58:25;;;;;;;17.30;11.25;;;;;;;8.51;66.74;100847.77;2271633;78;28887;-74
2021/03/23 12:01:28;;;;;;;14.80;9.00;;;;;;;8.63;66.92;100846.47;2308312;77;27710;-74
2021/03/23 12:04:31;;;;;;;18.40;9.55;;;;;;;8.69;66.61;100842.72;2277767;77;30105;-74
2021/03/23 12:07:56;;;;;;;17.20;9.45;;;;;;;8.71;66.47;100840.02;2263906;78;32105;-74
2021/03/23 12:11:12;;;;;;;14.28;9.30;;;;;;;8.77;66.40;100843.34;2264217;78;33251;-74
2021/03/23 12:14:44;;;;;;;14.90;9.93;;;;;;;8.87;66.34;100845.25;2260662;78;29294;-75
2021/03/23 12:17:50;;;;;;;17.07;10.63;;;;;;;8.99;66.19;100839.96;2257751;78;27681;-75
2021/03/23 12:24:10;;;;;;;24.70;12.82;;;;;;;9.55;65.97;100828.62;2247928;78;31809;-73
2021/03/23 12:27:15;;;;;;;44.93;23.18;;;;;;;9.66;65.97;100826.44;2228082;79;27836;-73
2021/03/23 12:30:19;;;;;;;39.60;21.17;;;;;;;9.82;65.38;100833.88;2228371;79;28808;-73
2021/03/23 12:33:21;;;;;;;24.72;15.20;;;;;;;9.89;64.79;100834.04;2227882;79;31342;-73
2021/03/23 12:36:23;;;;;;;22.98;13.60;;;;;;;9.90;64.79;100829.58;2223705;79;33096;-72
2021/03/23 12:39:26;;;;;;;16.82;10.70;;;;;;;9.93;64.39;100834.34;2164915;79;29422;-74
2021/03/23 12:42:29;;;;;;;19.07;12.23;;;;;;;9.90;64.20;100840.28;2218392;79;27839;-69
2021/03/23 12:45:36;;;;;;;14.68;9.38;;;;;;;9.81;63.75;100839.69;2209440;79;28806;-74
2021/03/23 12:48:38;;;;;;;15.45;8.83;;;;;;;9.73;63.82;100837.78;2228681;79;31151;-71
2021/03/23 12:51:51;;;;;;;14.28;8.03;;;;;;;9.64;63.64;100834.98;2168608;81;33190;-70
2021/03/23 12:54:55;;;;;;;14.50;9.03;;;;;;;9.54;63.59;100835.78;2189324;79;29858;-72
2021/03/23 12:58:01;;;;;;;13.03;8.35;;;;;;;9.47;63.58;100838.26;2206903;79;28174;-70
2021/03/23 13:01:03;;;;;;;20.08;10.18;;;;;;;9.38;63.36;100838.61;2228238;79;28885;-71
2021/03/23 13:04:04;;;;;;;16.57;9.80;;;;;;;9.25;63.40;100828.80;2207257;79;32095;-70
2021/03/23 13:07:13;;;;;;;16.42;8.23;;;;;;;9.19;63.35;100828.56;2219135;80;33099;-70
2021/03/23 13:10:32;;;;;;;18.02;10.03;;;;;;;9.09;62.98;100836.52;2187200;80;30996;-69
2021/03/23 13:13:39;;;;;;;21.37;10.88;;;;;;;9.00;63.07;100833.69;2219580;80;27717;-70
2021/03/23 13:16:41;;;;;;;18.82;9.35;;;;;;;8.94;63.18;100838.76;2210337;79;28816;-72
2021/03/23 13:19:44;;;;;;;18.35;10.18;;;;;;;8.90;63.08;100836.25;2217630;79;32134;-73
2021/03/23 13:22:53;;;;;;;20.77;12.20;;;;;;;8.88;63.09;100836.76;2175624;80;33263;-73
2021/03/23 13:25:58;;;;;;;13.43;8.55;;;;;;;8.90;63.14;100834.91;2196535;80;28865;-71
2021/03/23 13:29:08;;;;;;;13.90;8.28;;;;;;;8.94;63.16;100828.55;2179157;81;27609;-71
2021/03/23 13:32:10;;;;;;;14.05;8.28;;;;;;;9.03;63.30;100832.70;2197942;79;29866;-70
2021/03/23 13:35:13;;;;;;;14.10;8.53;;;;;;;9.17;63.38;100830.89;2182872;80;32076;-69
2021/03/23 13:38:17;;;;;;;14.25;8.20;;;;;;;9.32;63.31;100833.47;2169575;80;33939;-72
2021/03/23 13:41:19;;;;;;;18.40;8.83;;;;;;;9.46;62.69;100834.31;2165733;81;28868;-74
2021/03/23 13:47:52;;;;;;;11.38;6.37;;;;;;;9.68;62.25;100837.92;2248331;78;32773;-69
2021/03/23 13:50:57;;;;;;;;;;;;;;;9.67;61.67;100834.88;2230456;78;27779;-59
2021/03/23 13:54:00;;;;;;;10.38;6.45;;;;;;;9.66;61.91;100839.81;2191982;79;29858;-59
2021/03/23 13:57:02;;;;;;;16.05;9.58;;;;;;;9.57;61.74;100838.35;2189287;81;31181;-60
2021/03/23 14:00:07;;;;;;;23.67;8.55;;;;;;;9.49;61.49;100840.90;2206224;79;33118;-61
2021/03/23 14:03:09;;;;;;;16.00;8.75;;;;;;;9.41;62.03;100840.70;2218273;79;28530;-59
2021/03/23 14:06:20;;;;;;;14.40;8.98;;;;;;;9.33;61.87;100834.77;2212373;79;27753;-60
2021/03/23 14:09:36;;;;;;;19.17;9.23;;;;;;;9.25;61.83;100838.16;2188331;79;28832;-63
2021/03/23 14:12:38;;;;;;;;;;;;;;;9.09;61.70;100838.70;2212527;79;32060;-59
2021/03/23 14:15:41;;;;;;;19.95;11.53;;;;;;;8.97;61.74;100844.00;2149671;82;33213;-59
2021/03/23 14:18:44;;;;;;;21.62;12.28;;;;;;;8.90;61.89;100842.93;2186150;81;28847;-60
2021/03/23 14:21:47;;;;;;;32.55;15.68;;;;;;;8.86;61.82;100851.52;2172391;81;27790;-61
2021/03/23 14:24:48;;;;;;;26.07;13.58;;;;;;;8.80;61.72;100843.70;2217886;80;28869;-63
2021/03/23 14:27:51;;;;;;;25.92;12.23;;;;;;;8.75;61.66;100846.53;2216988;80;31207;-60
2021/03/23 14:30:55;;;;;;;25.27;12.80;;;;;;;8.66;61.32;100843.70;2209906;80;34671;-61
2021/03/23 14:33:59;;;;;;;33.63;16.20;;;;;;;8.60;61.59;100850.59;2186688;80;28860;-61
2021/03/23 14:37:02;;;;;;;38.53;18.57;;;;;;;8.56;61.64;100848.95;2187204;80;28166;-60
2021/03/23 14:40:07;;;;;;;32.67;15.00;;;;;;;8.54;61.66;100852.12;2216606;80;28899;-60
2021/03/23 14:43:13;;;;;;;20.50;11.83;;;;;;;8.52;61.74;100855.30;2208080;80;31373;-59